Time,TemperatureF,DewpointF,PressureIn,WindDirection,WindDirectionDegrees,WindSpeedMPH,WindSpeedGustMPH,Humidity,HourlyPrecipIn,Conditions,Clouds,dailyrainin,SoftwareType,DateUTC
2013-04-10 01:00:00,43.0,43.0,30.00,NNW,330,2.0,-999.0,98,-99.99,,,-99.99,,2013-04-10 05:00:00,
2013-04-10 01:22:00,43.0,43.0,30.00,NNW,330,2.0,-999.0,98,-99.99,,,-99.99,,2013-04-10 05:22:00,
2013-04-10 01:32:00,43.0,43.0,30.00,NNW,330,2.0,-999.0,98,-99.99,,,-99.99,,2013-04-10 05:32:00,
2013-04-10 01:42:00,43.0,43.0,30.00,NNW,330,2.0,-999.0,98,-99.99,,,-99.99,,2013-04-10 05:42:00,
2013-04-10 01:52:00,43.0,43.0,30.00,NNW,330,2.0,-999.0,98,-99.99,,,-99.99,,2013-04-10 05:52:00,
2013-04-10 03:21:00,43.0,42.0,29.99,North,350,5.0,-999.0,98,-99.99,,,-99.99,,2013-04-10 07:21:00,
2013-04-10 03:31:00,43.0,42.0,29.99,North,350,5.0,-999.0,98,-99.99,,,-99.99,,2013-04-10 07:31:00,
2013-04-10 03:41:00,43.0,42.0,29.99,North,350,5.0,-999.0,98,-99.99,,,-99.99,,2013-04-10 07:41:00,
2013-04-10 03:52:00,43.0,42.0,29.99,North,350,5.0,-999.0,98,-99.99,,,-99.99,,2013-04-10 07:52:00,
2013-04-10 04:00:00,44.0,43.0,30.01,NNE,20,1.0,-999.0,97,-99.99,,,-99.99,,2013-04-10 08:00:00,
2013-04-10 04:21:00,44.0,43.0,30.01,NNE,20,1.0,-999.0,97,-99.99,,,-99.99,,2013-04-10 08:21:00,
2013-04-10 04:31:00,44.0,43.0,30.01,NNE,20,1.0,-999.0,97,-99.99,,,-99.99,,2013-04-10 08:31:00,
2013-04-10 04:42:00,44.0,43.0,30.01,NNE,20,1.0,-999.0,97,-99.99,,,-99.99,,2013-04-10 08:42:00,
2013-04-10 04:51:00,44.0,43.0,30.01,NNE,20,1.0,-999.0,97,-99.99,,,-99.99,,2013-04-10 08:51:00,
2013-04-10 05:00:00,43.0,42.0,30.01,North,360,5.0,-999.0,95,-99.99,,,-99.99,,2013-04-10 09:00:00,
2013-04-10 05:21:00,43.0,42.0,30.01,North,360,5.0,-999.0,95,-99.99,,,-99.99,,2013-04-10 09:21:00,
2013-04-10 05:32:00,43.0,42.0,30.01,North,360,5.0,-999.0,95,-99.99,,,-99.99,,2013-04-10 09:32:00,
2013-04-10 05:42:00,43.0,42.0,30.01,North,360,5.0,-999.0,95,-99.99,,,-99.99,,2013-04-10 09:42:00,
2013-04-10 05:52:00,43.0,42.0,30.01,North,360,5.0,-999.0,95,-99.99,,,-99.99,,2013-04-10 09:52:00,
2013-04-10 06:00:00,43.0,39.0,30.02,North,360,10.0,-999.0,85,-99.99,,,-99.99,,2013-04-10 10:00:00,
2013-04-10 06:23:00,43.0,39.0,30.02,North,360,10.0,-999.0,85,-99.99,,,-99.99,,2013-04-10 10:23:00,
2013-04-10 06:32:00,43.0,39.0,30.02,North,360,10.0,-999.0,85,-99.99,,,-99.99,,2013-04-10 10:32:00,
2013-04-10 06:42:00,43.0,39.0,30.02,North,360,10.0,-999.0,85,-99.99,,,-99.99,,2013-04-10 10:42:00,
2013-04-10 06:52:00,43.0,39.0,30.02,North,360,10.0,-999.0,85,-99.99,,,-99.99,,2013-04-10 10:52:00,
2013-04-10 07:00:00,42.0,38.0,30.02,NNE,20,13.0,-999.0,84,-99.99,,,-99.99,,2013-04-10 11:00:00,
2013-04-10 07:22:00,42.0,38.0,30.02,NNE,20,13.0,-999.0,84,-99.99,,,-99.99,,2013-04-10 11:22:00,
2013-04-10 07:31:00,42.0,38.0,30.02,NNE,20,13.0,-999.0,84,-99.99,,,-99.99,,2013-04-10 11:31:00,
2013-04-10 07:42:00,42.0,38.0,30.02,NNE,20,13.0,-999.0,84,-99.99,,,-99.99,,2013-04-10 11:42:00,
2013-04-10 07:52:00,42.0,38.0,30.02,NNE,20,13.0,-999.0,84,-99.99,,,-99.99,,2013-04-10 11:52:00,
2013-04-10 08:00:00,42.0,37.0,30.03,NNE,20,14.0,-999.0,82,-99.99,,,-99.99,,2013-04-10 12:00:00,
2013-04-10 08:22:00,42.0,37.0,30.03,NNE,20,14.0,-999.0,82,-99.99,,,-99.99,,2013-04-10 12:22:00,
2013-04-10 08:32:00,42.0,37.0,30.03,NNE,20,14.0,-999.0,82,-99.99,,,-99.99,,2013-04-10 12:32:00,
2013-04-10 08:42:00,42.0,37.0,30.03,NNE,20,14.0,-999.0,82,-99.99,,,-99.99,,2013-04-10 12:42:00,
2013-04-10 08:51:00,42.0,37.0,30.03,NNE,20,14.0,-999.0,82,-99.99,,,-99.99,,2013-04-10 12:51:00,
2013-04-10 09:00:00,43.0,37.0,30.05,NNE,20,15.0,-999.0,79,-99.99,,,-99.99,,2013-04-10 13:00:00,
2013-04-10 09:21:00,43.0,37.0,30.05,NNE,20,15.0,-999.0,79,-99.99,,,-99.99,,2013-04-10 13:21:00,
2013-04-10 09:31:00,43.0,37.0,30.05,NNE,20,15.0,-999.0,79,-99.99,,,-99.99,,2013-04-10 13:31:00,
2013-04-10 09:41:00,43.0,37.0,30.05,NNE,20,15.0,-999.0,79,-99.99,,,-99.99,,2013-04-10 13:41:00,
2013-04-10 09:52:00,43.0,37.0,30.05,NNE,20,15.0,-999.0,79,-99.99,,,-99.99,,2013-04-10 13:52:00,
2013-04-10 12:00:00,42.0,37.0,30.11,North,10,8.0,-999.0,82,-99.99,,,-99.99,,2013-04-10 16:00:00,
2013-04-10 12:22:00,42.0,37.0,30.11,North,10,8.0,-999.0,82,-99.99,,,-99.99,,2013-04-10 16:22:00,
2013-04-10 12:32:00,42.0,37.0,30.11,North,10,8.0,-999.0,82,-99.99,,,-99.99,,2013-04-10 16:32:00,
2013-04-10 12:42:00,42.0,37.0,30.11,North,10,8.0,-999.0,82,-99.99,,,-99.99,,2013-04-10 16:42:00,
2013-04-10 12:52:00,42.0,37.0,30.11,North,10,8.0,-999.0,82,-99.99,,,-99.99,,2013-04-10 16:52:00,
2013-04-10 13:22:00,42.0,36.0,30.03,NNE,30,16.0,-999.0,80,-99.99,,,-99.99,,2013-04-10 17:22:00,
2013-04-10 13:32:00,42.0,36.0,30.03,NNE,30,16.0,-999.0,80,-99.99,,,-99.99,,2013-04-10 17:32:00,
2013-04-10 13:41:00,42.0,36.0,30.03,NNE,30,16.0,-999.0,80,-99.99,,,-99.99,,2013-04-10 17:41:00,
2013-04-10 13:52:00,42.0,36.0,30.03,NNE,30,16.0,-999.0,80,-99.99,,,-99.99,,2013-04-10 17:52:00,
2013-04-10 15:00:00,45.0,37.0,30.01,NNE,20,8.0,-999.0,72,-99.99,,,-99.99,,2013-04-10 19:00:00,
2013-04-10 15:21:00,45.0,37.0,30.01,NNE,20,8.0,-999.0,72,-99.99,,,-99.99,,2013-04-10 19:21:00,
2013-04-10 15:31:00,45.0,37.0,30.01,NNE,20,8.0,-999.0,72,-99.99,,,-99.99,,2013-04-10 19:31:00,
2013-04-10 15:41:00,45.0,37.0,30.01,NNE,20,8.0,-999.0,72,-99.99,,,-99.99,,2013-04-10 19:41:00,
2013-04-10 15:52:00,45.0,37.0,30.01,NNE,20,8.0,-999.0,72,-99.99,,,-99.99,,2013-04-10 19:52:00,
2013-04-10 16:00:00,44.0,38.0,29.99,NE,40,5.0,-999.0,79,-99.99,,,-99.99,,2013-04-10 20:00:00,
2013-04-10 16:21:00,44.0,38.0,29.99,NE,40,5.0,-999.0,79,-99.99,,,-99.99,,2013-04-10 20:21:00,
2013-04-10 16:31:00,44.0,38.0,29.99,NE,40,5.0,-999.0,79,-99.99,,,-99.99,,2013-04-10 20:31:00,
2013-04-10 16:41:00,44.0,38.0,29.99,NE,40,5.0,-999.0,79,-99.99,,,-99.99,,2013-04-10 20:41:00,
2013-04-10 16:51:00,44.0,38.0,29.99,NE,40,5.0,-999.0,79,-99.99,,,-99.99,,2013-04-10 20:51:00,
2013-04-10 18:00:00,42.0,37.0,29.96,NNE,30,13.0,-999.0,83,-99.99,,,-99.99,,2013-04-10 22:00:00,
2013-04-10 18:22:00,42.0,37.0,29.96,NNE,30,13.0,-999.0,83,-99.99,,,-99.99,,2013-04-10 22:22:00,
2013-04-10 18:32:00,42.0,37.0,29.96,NNE,30,13.0,-999.0,83,-99.99,,,-99.99,,2013-04-10 22:32:00,
2013-04-10 18:42:00,42.0,37.0,29.96,NNE,30,13.0,-999.0,83,-99.99,,,-99.99,,2013-04-10 22:42:00,
2013-04-10 18:52:00,42.0,37.0,29.96,NNE,30,13.0,-999.0,83,-99.99,,,-99.99,,2013-04-10 22:52:00,
2013-04-10 20:00:00,41.0,38.0,30.03,North,360,9.0,-999.0,89,-99.99,,,-99.99,,2013-04-11 00:00:00,
2013-04-10 20:21:00,41.0,38.0,30.03,North,360,9.0,-999.0,89,-99.99,,,-99.99,,2013-04-11 00:21:00,
2013-04-10 20:31:00,41.0,38.0,30.03,North,360,9.0,-999.0,89,-99.99,,,-99.99,,2013-04-11 00:31:00,
2013-04-10 20:41:00,41.0,38.0,30.03,North,360,9.0,-999.0,89,-99.99,,,-99.99,,2013-04-11 00:41:00,
2013-04-10 20:51:00,41.0,38.0,30.03,North,360,9.0,-999.0,89,-99.99,,,-99.99,,2013-04-11 00:51:00,
2013-04-10 22:00:00,40.0,36.0,30.01,North,350,6.0,-999.0,82,-99.99,,,-99.99,,2013-04-11 02:00:00,
2013-04-10 22:21:00,40.0,36.0,30.01,North,350,6.0,-999.0,82,-99.99,,,-99.99,,2013-04-11 02:21:00,
2013-04-10 22:31:00,40.0,36.0,30.01,North,350,6.0,-999.0,82,-99.99,,,-99.99,,2013-04-11 02:31:00,
2013-04-10 22:41:00,40.0,36.0,30.01,North,350,6.0,-999.0,82,-99.99,,,-99.99,,2013-04-11 02:41:00,
2013-04-10 22:52:00,40.0,36.0,30.01,North,350,6.0,-999.0,82,-99.99,,,-99.99,,2013-04-11 02:52:00,